Time;durP1;ratioP1;P1;durP2;ratioP2;P2;SDS_P1;SDS_P2;PMS_P1;PMS_P2;Temp;Humidity;BMP_temperature;BMP_pressure;BME280_temperature;BME280_humidity;BME280_pressure;Samples;Min_cycle;Max_cycle;Signal;HPM_P1;HPM_P2
2023/10/02 00:03:28;;;;;;;5.68;2.08;;;;;;;16.49;89.42;101554.84;5076452;28;20047;-72
2023/10/02 00:05:55;;;;;;;4.78;2.03;;;;;;;16.44;89.79;101557.09;5072854;28;20024;-72
2023/10/02 00:08:36;;;;;;;3.20;2.03;;;;;;;16.33;90.92;101552.09;5073295;28;20094;-71
2023/10/02 00:11:36;;;;;;;3.45;2.10;;;;;;;16.34;90.87;101555.56;5070404;28;20056;-72
2023/10/02 00:14:26;;;;;;;3.47;1.83;;;;;;;16.46;90.79;101559.59;5070460;28;20043;-71
2023/10/02 00:16:59;;;;;;;2.83;1.75;;;;;;;16.58;89.79;101559.13;5070086;28;20391;-72
2023/10/02 00:19:35;;;;;;;4.63;2.20;;;;;;;16.69;88.91;101555.44;5069204;28;20035;-72
2023/10/02 00:22:07;;;;;;;3.58;2.25;;;;;;;16.72;88.23;101565.66;5070418;28;20028;-72
2023/10/02 00:24:37;;;;;;;3.55;2.15;;;;;;;16.62;89.14;101570.16;5070649;28;20051;-71
2023/10/02 00:27:05;;;;;;;3.15;1.85;;;;;;;16.62;88.84;101566.72;5069021;28;20206;-72
2023/10/02 00:29:31;;;;;;;6.55;1.88;;;;;;;16.59;89.35;101565.22;5069730;28;20036;-72
2023/10/02 00:31:57;;;;;;;4.95;1.95;;;;;;;16.53;89.08;101566.69;5069937;28;20063;-72
2023/10/02 00:34:32;;;;;;;5.35;2.17;;;;;;;16.43;90.02;101575.69;5068093;28;20100;-72
2023/10/02 00:37:05;;;;;;;5.05;2.10;;;;;;;16.40;90.39;101574.19;5069474;28;20040;-72
2023/10/02 00:39:35;;;;;;;4.90;1.98;;;;;;;16.47;91.25;101571.75;5069842;28;20070;-72
2023/10/02 00:42:24;;;;;;;5.80;2.55;;;;;;;16.56;91.77;101576.88;5069387;28;20036;-72
2023/10/02 00:44:52;;;;;;;3.83;2.22;;;;;;;16.57;91.45;101572.44;5069896;28;20075;-71
2023/10/02 00:47:50;;;;;;;4.88;2.45;;;;;;;16.58;92.11;101568.81;5068561;28;20070;-72
2023/10/02 00:50:24;;;;;;;4.47;2.35;;;;;;;16.55;92.02;101569.16;5066081;28;20028;-72
2023/10/02 00:53:03;;;;;;;8.07;3.22;;;;;;;16.47;92.66;101577.00;5067403;28;20444;-71
2023/10/02 00:55:32;;;;;;;6.53;2.80;;;;;;;16.38;93.95;101567.44;5069071;28;20123;-71
2023/10/02 00:57:59;;;;;;;4.05;2.47;;;;;;;16.41;93.51;101567.13;5069887;28;20048;-71
2023/10/02 01:00:36;;;;;;;5.30;3.13;;;;;;;16.40;94.39;101565.47;5069164;28;20174;-72
2023/10/02 01:03:08;;;;;;;3.47;2.22;;;;;;;16.40;95.18;101565.47;5068766;28;20495;-71
2023/10/02 01:05:41;;;;;;;4.07;2.75;;;;;;;16.39;95.13;101563.81;5066563;28;20514;-71
2023/10/02 01:08:24;;;;;;;3.92;2.47;;;;;;;16.40;95.25;101561.03;5069400;28;20058;-72
2023/10/02 01:10:58;;;;;;;3.58;2.60;;;;;;;16.40;93.92;101570.72;5066753;28;20024;-72
2023/10/02 01:13:35;;;;;;;3.47;2.17;;;;;;;16.43;94.12;101562.53;5066376;28;20380;-72
2023/10/02 01:16:08;;;;;;;5.65;2.33;;;;;;;16.47;93.32;101572.59;5069456;28;20059;-72
2023/10/02 01:18:38;;;;;;;4.10;2.45;;;;;;;16.44;93.93;101572.06;5070007;28;20055;-71
2023/10/02 01:21:18;;;;;;;4.93;2.28;;;;;;;16.43;93.83;101570.41;5069507;28;20024;-71
2023/10/02 01:24:16;;;;;;;4.50;2.60;;;;;;;16.39;94.52;101566.44;5069638;28;20480;-71
2023/10/02 01:26:43;;;;;;;5.55;2.92;;;;;;;16.39;94.08;101569.91;5068645;28;20037;-72
2023/10/02 01:29:13;;;;;;;4.25;2.33;;;;;;;16.36;94.68;101572.84;5069197;28;20391;-71
2023/10/02 01:31:44;;;;;;;4.05;2.45;;;;;;;16.33;95.24;101574.94;5068704;28;20082;-72
2023/10/02 01:34:39;;;;;;;5.63;2.97;;;;;;;16.32;95.13;101574.13;5069160;28;20033;-71
2023/10/02 01:37:00;;;;;;;4.97;2.30;;;;;;;16.29;95.43;101584.94;5068771;28;20064;-71
2023/10/02 01:39:26;;;;;;;4.30;2.88;;;;;;;16.25;95.71;101587.06;5069505;28;20055;-72
2023/10/02 01:41:55;;;;;;;5.93;2.33;;;;;;;16.23;95.89;101581.13;5072547;28;20067;-72
2023/10/02 01:44:22;;;;;;;5.00;2.17;;;;;;;16.22;95.53;101589.19;5073010;28;20127;-72
2023/10/02 01:46:49;;;;;;;4.18;3.10;;;;;;;16.18;96.27;101588.66;5072471;28;20056;-72
2023/10/02 01:49:25;;;;;;;4.00;2.30;;;;;;;16.18;95.84;101586.03;5070768;28;20028;-72
2023/10/02 01:52:01;;;;;;;5.25;2.75;;;;;;;16.21;95.80;101584.91;5070189;28;20032;-72
2023/10/02 01:54:29;;;;;;;5.28;3.40;;;;;;;16.15;96.93;101578.44;5068035;28;20033;-71
2023/10/02 01:56:56;;;;;;;4.70;2.78;;;;;;;16.12;96.91;101578.75;5068719;28;20044;-72
2023/10/02 01:59:24;;;;;;;5.57;2.40;;;;;;;16.12;97.60;101581.38;5068330;28;20043;-72
2023/10/02 02:01:56;;;;;;;5.03;2.72;;;;;;;16.12;98.07;101578.75;5068946;28;20464;-71
2023/10/02 02:04:32;;;;;;;6.72;2.83;;;;;;;16.14;97.49;101582.06;5068968;28;20059;-71
2023/10/02 02:06:59;;;;;;;;;;;;;;;16.15;98.36;101577.63;5069353;28;20024;-71
2023/10/02 02:09:27;;;;;;;8.15;3.00;;;;;;;16.16;96.97;101580.09;5068213;28;20386;-71
2023/10/02 02:14:52;;;;;;;6.65;2.72;;;;;;;16.13;97.13;101590.91;5062759;28;20175;-71
2023/10/02 02:17:26;;;;;;;8.93;3.47;;;;;;;16.10;97.46;101580.72;5072527;28;20157;-71
2023/10/02 02:19:52;;;;;;;5.63;2.83;;;;;;;16.06;98.00;101581.19;5074789;28;20032;-71
2023/10/02 02:22:18;;;;;;;4.35;2.42;;;;;;;16.04;97.91;101585.78;5072077;28;20498;-71
2023/10/02 02:24:44;;;;;;;3.80;2.60;;;;;;;15.99;98.62;101585.41;5071962;28;20048;-72
2023/10/02 02:27:10;;;;;;;5.45;2.75;;;;;;;15.98;97.89;101581.94;5072407;28;20108;-71
2023/10/02 02:29:38;;;;;;;4.28;2.75;;;;;;;15.94;99.12;101577.97;5072012;28;20063;-72
2023/10/02 02:32:06;;;;;;;4.18;2.80;;;;;;;15.94;99.08;101580.59;5072921;28;20035;-72
2023/10/02 02:34:32;;;;;;;3.85;2.55;;;;;;;15.94;99.21;101580.59;5072070;28;20048;-72
2023/10/02 02:36:59;;;;;;;5.78;3.38;;;;;;;15.92;99.68;101580.75;5074910;28;20029;-72
2023/10/02 02:39:27;;;;;;;6.25;2.97;;;;;;;15.92;100.00;101577.31;5071116;28;20030;-72
2023/10/02 02:44:46;;;;;;;5.55;2.95;;;;;;;15.92;99.18;101574.69;5071568;28;20036;-72
2023/10/02 02:47:16;;;;;;;5.72;3.17;;;;;;;15.88;99.18;101574.16;5064910;28;20033;-71
2023/10/02 02:49:50;;;;;;;6.90;2.97;;;;;;;15.86;99.72;101575.28;5071486;28;20039;-71
2023/10/02 02:52:17;;;;;;;5.93;2.42;;;;;;;15.85;99.88;101571.81;5073595;28;20032;-71
2023/10/02 02:54:47;;;;;;;5.38;2.63;;;;;;;15.86;99.08;101575.28;5073013;28;20127;-72
2023/10/02 02:57:15;;;;;;;4.90;2.67;;;;;;;15.85;98.60;101571.00;5072011;28;20067;-72
2023/10/02 02:59:40;;;;;;;6.65;2.80;;;;;;;15.75;97.75;101575.50;5071341;28;20044;-72
2023/10/02 03:02:08;;;;;;;5.28;2.75;;;;;;;15.60;99.06;101562.91;5071893;28;20021;-72
2023/10/02 03:04:36;;;;;;;7.13;2.65;;;;;;;15.64;98.93;101568.69;5068829;28;20033;-72
2023/10/02 03:07:08;;;;;;;6.70;2.95;;;;;;;15.77;98.35;101568.31;5071971;28;20036;-71
2023/10/02 03:09:34;;;;;;;5.88;2.80;;;;;;;15.85;97.46;101566.56;5070516;28;20487;-72
2023/10/02 03:11:59;;;;;;;5.35;2.85;;;;;;;15.80;97.30;101576.72;5071495;28;20029;-72
2023/10/02 03:14:28;;;;;;;4.38;2.60;;;;;;;15.75;97.81;101570.25;5070570;28;20531;-72
2023/10/02 03:16:54;;;;;;;4.93;2.47;;;;;;;15.70;97.73;101575.97;5071072;28;20392;-72
2023/10/02 03:19:19;;;;;;;7.05;2.63;;;;;;;15.76;97.50;101571.91;5073687;28;20036;-72
2023/10/02 03:21:47;;;;;;;2.85;1.92;;;;;;;15.81;97.19;101578.34;5072577;28;20032;-72
2023/10/02 03:24:18;;;;;;;5.13;2.65;;;;;;;15.81;96.72;101569.66;5069569;28;20028;-71
2023/10/02 03:26:49;;;;;;;4.43;2.00;;;;;;;15.81;97.43;101574.91;5069610;28;20025;-71
2023/10/02 03:29:21;;;;;;;5.40;2.50;;;;;;;15.82;97.20;101573.94;5074616;28;20187;-72
2023/10/02 03:31:51;;;;;;;6.55;3.28;;;;;;;15.89;97.39;101581.06;5071368;28;20499;-72
2023/10/02 03:34:30;;;;;;;9.50;2.80;;;;;;;15.89;97.95;101572.34;5070692;28;20040;-71
2023/10/02 03:37:07;;;;;;;5.88;2.80;;;;;;;15.90;97.96;101579.25;5067448;28;20024;-72
2023/10/02 03:42:22;;;;;;;4.40;3.10;;;;;;;15.71;100.00;101576.78;5069390;28;20124;-71
2023/10/02 03:44:58;;;;;;;6.35;2.50;;;;;;;15.63;100.00;101571.44;5071138;28;20058;-72
2023/10/02 03:47:25;;;;;;;3.58;2.53;;;;;;;15.58;100.00;101569.31;5070009;28;20039;-72
2023/10/02 03:49:51;;;;;;;4.47;2.78;;;;;;;15.56;100.00;101561.56;5070855;28;20029;-71
2023/10/02 03:52:17;;;;;;;6.20;3.10;;;;;;;15.55;100.00;101565.16;5074205;28;20021;-71
2023/10/02 03:54:46;;;;;;;7.63;2.88;;;;;;;15.55;100.00;101567.78;5069987;28;20028;-71
2023/10/02 04:00:18;;;;;;;5.57;2.42;;;;;;;15.53;100.00;101555.75;5068826;28;20043;-71
2023/10/02 04:02:45;;;;;;;6.10;2.77;;;;;;;15.50;100.00;101556.06;5069758;28;20059;-71
2023/10/02 04:05:30;;;;;;;4.22;3.00;;;;;;;15.43;100.00;101560.25;5070163;28;20077;-72
2023/10/02 04:08:12;;;;;;;3.53;2.25;;;;;;;15.42;100.00;101566.47;5069371;28;20028;-71
2023/10/02 04:10:51;;;;;;;8.48;3.25;;;;;;;15.36;100.00;101565.28;5069473;28;20105;-71
2023/10/02 04:13:23;;;;;;;6.63;3.00;;;;;;;15.32;100.00;101556.03;5067863;28;20020;-71
2023/10/02 04:15:49;;;;;;;5.30;3.05;;;;;;;15.31;100.00;101567.53;5068594;28;20454;-72
2023/10/02 04:18:45;;;;;;;6.28;3.38;;;;;;;15.26;100.00;101567.13;5070735;28;20426;-71
2023/10/02 04:21:09;;;;;;;3.78;2.80;;;;;;;15.31;100.00;101564.06;5073194;28;20040;-72
2023/10/02 04:23:40;;;;;;;6.40;3.30;;;;;;;15.33;100.00;101554.25;5069640;28;20035;-71
2023/10/02 04:26:22;;;;;;;6.30;3.00;;;;;;;15.33;100.00;101568.19;5071386;28;20035;-72
2023/10/02 04:29:09;;;;;;;6.72;3.42;;;;;;;15.33;100.00;101564.75;5068049;28;20028;-72
2023/10/02 04:31:35;;;;;;;4.90;2.47;;;;;;;15.33;100.00;101567.38;5067757;28;20090;-72
2023/10/02 04:36:45;;;;;;;6.13;3.28;;;;;;;15.32;100.00;101566.53;5065414;28;20518;-71
2023/10/02 04:39:52;;;;;;;7.72;2.97;;;;;;;15.32;100.00;101568.34;5069947;28;20029;-72
2023/10/02 04:42:19;;;;;;;4.82;3.40;;;;;;;15.34;100.00;101567.22;5069648;28;20041;-71
2023/10/02 04:44:47;;;;;;;6.28;3.00;;;;;;;15.36;100.00;101570.53;5066002;28;20029;-71
2023/10/02 04:47:17;;;;;;;5.45;3.33;;;;;;;15.40;100.00;101574.50;5075595;28;20125;-71
2023/10/02 04:55:24;;;;;;;7.50;3.72;;;;;;;15.47;100.00;101577.38;5058823;28;20229;-73
2023/10/02 04:58:03;;;;;;;6.75;2.75;;;;;;;15.45;100.00;101580.16;5063605;28;20271;-72
2023/10/02 05:00:34;;;;;;;7.90;3.00;;;;;;;15.42;100.00;101580.44;5069700;28;20032;-71
2023/10/02 05:03:09;;;;;;;6.00;3.45;;;;;;;15.41;100.00;101581.41;5069329;28;20076;-71
2023/10/02 05:05:47;;;;;;;4.18;2.92;;;;;;;15.38;100.00;101579.09;5073748;28;20037;-71
2023/10/02 05:08:20;;;;;;;5.65;2.65;;;;;;;15.39;100.00;101580.72;5070843;28;20032;-71
2023/10/02 05:10:51;;;;;;;7.43;3.25;;;;;;;15.44;100.00;101577.66;5070763;28;20029;-73
2023/10/02 05:13:45;;;;;;;4.85;2.42;;;;;;;15.43;100.00;101581.25;5073425;28;20028;-72
2023/10/02 05:16:12;;;;;;;5.50;3.05;;;;;;;15.43;100.00;101592.59;5064292;28;20089;-71
2023/10/02 05:18:47;;;;;;;7.15;3.13;;;;;;;15.41;100.00;101596.34;5070961;28;20506;-71
2023/10/02 05:21:17;;;;;;;4.80;2.88;;;;;;;15.40;100.00;101594.69;5062861;28;20090;-71
2023/10/02 05:24:01;;;;;;;7.03;2.83;;;;;;;15.40;100.00;101592.06;5068213;28;20052;-71
2023/10/02 05:26:34;;;;;;;4.32;2.80;;;;;;;15.40;100.00;101597.31;5069795;28;20044;-71
2023/10/02 05:29:00;;;;;;;4.88;2.88;;;;;;;15.42;100.00;101595.38;5078698;28;20487;-71
2023/10/02 05:31:27;;;;;;;7.65;2.80;;;;;;;15.39;100.00;101599.13;5066563;28;20082;-72
2023/10/02 05:33:54;;;;;;;4.28;2.92;;;;;;;15.36;100.00;101599.41;5070144;28;20460;-71
2023/10/02 05:36:22;;;;;;;7.05;2.95;;;;;;;15.35;100.00;101600.38;5064458;28;20028;-71
2023/10/02 05:39:27;;;;;;;4.60;3.03;;;;;;;15.35;100.00;101605.63;5059821;28;20043;-71
2023/10/02 05:41:44;;;;;;;6.72;3.00;;;;;;;15.34;100.00;101603.97;5063827;28;20102;-71
2023/10/02 05:44:23;;;;;;;6.80;3.50;;;;;;;15.35;100.00;101608.25;5065777;28;20383;-72
2023/10/02 05:46:55;;;;;;;4.75;3.13;;;;;;;15.39;100.00;101598.28;5061114;28;20063;-72
2023/10/02 05:49:24;;;;;;;4.22;2.55;;;;;;;15.41;100.00;101606.84;5064668;28;20032;-71
2023/10/02 05:51:55;;;;;;;4.85;2.25;;;;;;;15.47;100.00;101616.75;5072982;28;20566;-71
2023/10/02 05:54:26;;;;;;;6.05;3.13;;;;;;;15.53;100.00;101617.00;5068882;28;20036;-71
2023/10/02 05:57:12;;;;;;;6.57;3.05;;;;;;;15.56;100.00;101610.63;5072338;28;20045;-72
2023/10/02 05:59:44;;;;;;;;;;;;;;;15.62;100.00;101617.09;5077972;28;20113;-71
2023/10/02 06:02:20;;;;;;;4.20;2.33;;;;;;;15.64;100.00;101618.59;5072585;28;19927;-71
2023/10/02 06:04:48;;;;;;;4.97;2.60;;;;;;;15.66;100.00;101618.44;5073852;28;20020;-72
2023/10/02 06:07:51;;;;;;;6.00;2.70;;;;;;;15.67;100.00;101612.22;5071215;28;20099;-72
2023/10/02 06:10:25;;;;;;;5.70;2.65;;;;;;;15.73;100.00;101609.81;5064898;28;20397;-72
2023/10/02 06:13:06;;;;;;;6.78;3.10;;;;;;;15.79;100.00;101616.28;5074473;28;20082;-71
2023/10/02 06:15:48;;;;;;;4.10;2.63;;;;;;;15.85;100.00;101613.03;5067271;28;20048;-72
2023/10/02 06:18:27;;;;;;;4.50;2.63;;;;;;;15.96;100.00;101615.44;5064239;28;20145;-72
2023/10/02 06:21:00;;;;;;;3.67;2.35;;;;;;;16.06;99.56;101620.63;5073568;28;20042;-71
2023/10/02 06:23:29;;;;;;;7.03;3.05;;;;;;;16.10;98.73;101619.31;5067309;28;20059;-72
2023/10/02 06:25:58;;;;;;;4.05;2.63;;;;;;;16.15;98.67;101614.44;5068542;28;20039;-71
2023/10/02 06:28:27;;;;;;;6.30;3.25;;;;;;;16.19;98.67;101621.84;5067237;28;20044;-72
2023/10/02 06:30:54;;;;;;;5.05;2.95;;;;;;;16.26;98.36;101622.06;5073095;28;20051;-72
2023/10/02 06:33:21;;;;;;;5.07;2.83;;;;;;;16.30;97.69;101622.59;5066163;28;20487;-71
2023/10/02 06:36:03;;;;;;;6.53;2.47;;;;;;;16.39;97.14;101622.50;5060625;28;20041;-73
2023/10/02 06:38:32;;;;;;;4.90;2.80;;;;;;;16.51;96.47;101623.91;5061845;28;20036;-71
2023/10/02 06:40:59;;;;;;;6.68;2.90;;;;;;;16.55;95.88;101627.84;5071605;28;20545;-71
2023/10/02 06:43:29;;;;;;;6.60;2.83;;;;;;;16.62;95.70;101621.97;5066846;28;20040;-71
2023/10/02 06:46:09;;;;;;;5.55;2.53;;;;;;;16.67;95.50;101620.53;5065153;28;20057;-72
2023/10/02 06:48:43;;;;;;;5.13;2.13;;;;;;;16.75;95.01;101625.03;5066158;28;20040;-71
2023/10/02 06:51:15;;;;;;;4.35;3.10;;;;;;;16.81;94.40;101627.88;5062577;28;20029;-70
2023/10/02 06:53:41;;;;;;;5.72;2.75;;;;;;;16.79;94.86;101629.84;5062738;28;20021;-71
2023/10/02 06:56:11;;;;;;;5.97;2.53;;;;;;;16.85;94.29;101633.66;5056552;28;20112;-70
2023/10/02 06:58:48;;;;;;;3.58;1.77;;;;;;;16.88;94.23;101631.53;5061145;28;20040;-71
2023/10/02 07:01:18;;;;;;;5.25;2.60;;;;;;;16.98;93.83;101634.03;5061779;28;20047;-71
2023/10/02 07:03:53;;;;;;;5.53;1.98;;;;;;;17.02;93.41;101632.72;5064702;28;20090;-70
2023/10/02 07:06:19;;;;;;;5.70;2.60;;;;;;;17.06;93.51;101631.41;5062305;28;20031;-71
2023/10/02 07:08:48;;;;;;;5.88;2.60;;;;;;;17.12;93.11;101636.06;5069847;28;20270;-70
2023/10/02 07:11:14;;;;;;;4.60;2.50;;;;;;;17.15;92.84;101635.75;5059312;28;20040;-71
2023/10/02 07:13:51;;;;;;;4.05;2.28;;;;;;;17.24;92.93;101637.44;5066899;28;20112;-71
2023/10/02 07:16:19;;;;;;;4.63;2.45;;;;;;;17.29;92.26;101630.84;5065231;28;20491;-71
2023/10/02 07:18:49;;;;;;;3.92;1.95;;;;;;;17.34;92.06;101642.56;5064166;28;20036;-71
2023/10/02 07:21:21;;;;;;;4.05;2.53;;;;;;;17.41;92.00;101640.94;5071000;28;20510;-71
2023/10/02 07:23:48;;;;;;;3.03;2.15;;;;;;;17.44;91.52;101645.88;5070532;28;20472;-71
2023/10/02 07:26:17;;;;;;;3.45;2.20;;;;;;;17.49;91.45;101640.94;5075284;28;20028;-71
2023/10/02 07:28:50;;;;;;;5.70;2.67;;;;;;;17.58;90.85;101649.69;5071437;28;20491;-71
2023/10/02 07:31:20;;;;;;;6.07;2.50;;;;;;;17.66;90.91;101643.66;5074951;28;20062;-71
2023/10/02 07:33:45;;;;;;;3.70;1.95;;;;;;;17.76;90.36;101649.59;5072123;28;20395;-72
2023/10/02 07:36:14;;;;;;;2.58;1.60;;;;;;;17.76;89.85;101644.31;5078720;28;20115;-70
2023/10/02 07:38:47;;;;;;;5.38;2.45;;;;;;;17.81;89.95;101644.66;5073306;28;20041;-72
2023/10/02 07:41:25;;;;;;;5.18;2.53;;;;;;;17.91;89.69;101642.69;5072219;28;20024;-73
2023/10/02 07:43:55;;;;;;;5.00;1.88;;;;;;;17.97;89.15;101647.28;5072434;28;20089;-73
2023/10/02 07:46:22;;;;;;;4.45;2.15;;;;;;;18.03;89.38;101646.63;5068925;28;20028;-73
2023/10/02 07:48:57;;;;;;;4.25;1.90;;;;;;;18.13;88.66;101646.47;5072071;28;20029;-73
2023/10/02 07:51:40;;;;;;;;;;;;;;;18.18;87.88;101645.00;5068086;28;20066;-73
2023/10/02 07:54:13;;;;;;;3.90;1.98;;;;;;;18.24;87.77;101643.50;5068188;28;19912;-73
2023/10/02 07:56:41;;;;;;;4.32;2.10;;;;;;;18.37;87.77;101653.56;5070653;28;20056;-73
2023/10/02 07:59:07;;;;;;;4.13;1.90;;;;;;;18.49;86.99;101652.22;5063880;28;20047;-73
2023/10/02 08:01:33;;;;;;;4.28;1.92;;;;;;;18.62;87.00;101655.19;5063996;28;20085;-73
2023/10/02 08:04:01;;;;;;;6.25;2.50;;;;;;;18.75;86.86;101655.50;5069005;28;20032;-73
2023/10/02 08:06:33;;;;;;;3.08;2.05;;;;;;;18.86;86.06;101654.31;5068537;28;20040;-73
2023/10/02 08:11:50;;;;;;;3.30;1.67;;;;;;;18.85;86.57;101658.78;5063491;28;20196;-73
2023/10/02 08:14:35;;;;;;;6.05;2.25;;;;;;;18.90;86.14;101661.69;5064928;28;20036;-73
2023/10/02 08:17:27;;;;;;;3.80;1.60;;;;;;;19.01;85.54;101654.41;5067540;28;20032;-73
2023/10/02 08:19:54;;;;;;;4.85;2.20;;;;;;;19.20;85.61;101661.94;5061308;28;20108;-73
2023/10/02 08:22:24;;;;;;;4.82;1.88;;;;;;;19.21;84.79;101669.69;5066344;28;20119;-74
2023/10/02 08:24:55;;;;;;;3.70;2.00;;;;;;;19.28;84.48;101669.81;5064117;28;20033;-73
2023/10/02 08:27:21;;;;;;;4.03;2.00;;;;;;;19.39;85.03;101663.31;5073292;28;20033;-74
2023/10/02 08:29:46;;;;;;;4.68;1.58;;;;;;;19.47;84.12;101664.09;5063409;28;20120;-73
2023/10/02 08:32:12;;;;;;;3.88;2.30;;;;;;;19.58;83.33;101662.09;5063796;28;20082;-74
2023/10/02 08:34:37;;;;;;;3.67;1.85;;;;;;;19.64;83.85;101656.94;5058880;28;20048;-74
2023/10/02 08:37:07;;;;;;;3.28;1.92;;;;;;;19.60;83.27;101665.38;5067594;28;20090;-73
2023/10/02 08:39:36;;;;;;;4.63;1.67;;;;;;;19.64;83.81;101664.03;5071158;28;20058;-73
2023/10/02 08:42:12;;;;;;;3.78;1.95;;;;;;;19.68;82.15;101655.59;5058638;28;20028;-73
2023/10/02 08:44:42;;;;;;;3.50;2.20;;;;;;;19.74;83.55;101662.00;5058136;28;20094;-73
2023/10/02 08:47:12;;;;;;;4.78;1.90;;;;;;;19.87;83.23;101654.28;5059674;28;20435;-73
2023/10/02 08:49:38;;;;;;;3.55;2.00;;;;;;;20.03;82.09;101658.63;5062293;28;20098;-73
2023/10/02 08:52:11;;;;;;;3.92;2.10;;;;;;;20.12;81.52;101661.03;5060445;28;20033;-73
2023/10/02 08:54:41;;;;;;;4.10;1.58;;;;;;;20.12;82.05;101657.56;5062473;28;20034;-74
2023/10/02 08:57:12;;;;;;;4.25;2.03;;;;;;;20.10;82.11;101660.38;5056089;28;20166;-73
2023/10/02 08:59:41;;;;;;;3.38;2.10;;;;;;;20.20;81.85;101660.16;5060604;28;20547;-73
2023/10/02 09:02:14;;;;;;;5.15;2.72;;;;;;;20.31;80.95;101656.25;5054187;28;20068;-73
2023/10/02 09:05:00;;;;;;;3.22;1.70;;;;;;;20.27;80.84;101660.25;5058262;28;20029;-73
2023/10/02 09:07:44;;;;;;;6.32;2.30;;;;;;;20.45;80.29;101658.94;5072224;28;20048;-74
2023/10/02 09:10:26;;;;;;;3.40;1.85;;;;;;;20.51;79.93;101646.81;5075295;28;20045;-73
2023/10/02 09:13:16;;;;;;;4.75;1.83;;;;;;;20.51;80.01;101641.50;5056420;28;20502;-73
2023/10/02 09:15:47;;;;;;;3.97;1.60;;;;;;;20.44;79.95;101637.94;5052305;28;20445;-73
2023/10/02 09:19:07;;;;;;;5.20;1.85;;;;;;;20.46;80.93;101646.53;5061556;28;20110;-74
2023/10/02 09:21:39;;;;;;;2.85;1.60;;;;;;;20.66;78.53;101650.31;5069585;28;20048;-73
2023/10/02 09:24:18;;;;;;;2.50;1.33;;;;;;;20.63;79.57;101641.91;5068562;28;20138;-73
2023/10/02 09:26:45;;;;;;;2.78;1.42;;;;;;;20.56;80.64;101649.75;5073140;28;20020;-73
2023/10/02 09:29:12;;;;;;;4.03;2.15;;;;;;;20.68;80.36;101648.28;5073161;28;20051;-74
2023/10/02 09:31:38;;;;;;;4.15;1.83;;;;;;;20.68;80.47;101645.66;5074926;28;20085;-73
2023/10/02 09:34:10;;;;;;;5.10;2.03;;;;;;;20.59;81.49;101641.44;5066848;28;20032;-73
2023/10/02 09:36:45;;;;;;;5.28;2.08;;;;;;;20.52;82.63;101633.41;5070174;28;20060;-73
2023/10/02 09:42:06;;;;;;;4.47;1.92;;;;;;;20.96;79.97;101621.97;5070645;28;20052;-73
2023/10/02 09:44:48;;;;;;;4.35;2.22;;;;;;;21.11;79.41;101627.25;5068039;28;20036;-74
2023/10/02 09:47:22;;;;;;;5.40;1.77;;;;;;;21.07;80.03;101623.31;5070716;28;20036;-74
2023/10/02 09:50:11;;;;;;;4.75;2.17;;;;;;;21.06;81.28;101626.97;5072564;28;20036;-74
2023/10/02 09:52:57;;;;;;;6.82;1.90;;;;;;;20.96;82.62;101621.97;5070098;28;20036;-74
2023/10/02 09:55:34;;;;;;;4.07;2.08;;;;;;;21.14;78.84;101617.09;5072018;28;20075;-74
2023/10/02 09:58:03;;;;;;;2.80;1.40;;;;;;;21.17;80.24;101615.91;5071737;28;20381;-73
2023/10/02 10:00:36;;;;;;;3.45;1.65;;;;;;;21.10;80.95;101621.13;5074397;28;20028;-74
2023/10/02 10:03:23;;;;;;;6.22;2.28;;;;;;;21.18;80.34;101621.03;5072991;28;20044;-74
2023/10/02 10:06:07;;;;;;;4.60;2.00;;;;;;;21.17;81.03;101619.38;5072296;28;20043;-74
2023/10/02 10:12:21;;;;;;;6.13;1.93;;;;;;;21.43;80.12;101615.41;5071319;28;20075;-73
2023/10/02 10:14:54;;;;;;;4.72;1.83;;;;;;;21.60;80.16;101610.69;5063492;28;20282;-73
2023/10/02 10:17:21;;;;;;;4.22;1.85;;;;;;;21.56;80.09;101609.41;5064389;28;20411;-74
2023/10/02 10:22:40;;;;;;;3.35;1.88;;;;;;;21.42;80.84;101608.44;5059294;28;20036;-73
2023/10/02 10:25:35;;;;;;;4.85;1.90;;;;;;;21.36;80.87;101596.78;5061671;28;20032;-73
2023/10/02 10:28:05;;;;;;;4.15;2.22;;;;;;;21.35;81.82;101595.13;5067214;28;20045;-73
2023/10/02 10:30:33;;;;;;;3.67;1.88;;;;;;;21.33;82.43;101605.09;5062133;28;20024;-73
2023/10/02 10:33:26;;;;;;;4.30;1.85;;;;;;;21.35;82.32;101592.47;5059638;28;20365;-74
2023/10/02 10:35:51;;;;;;;3.25;1.45;;;;;;;21.69;77.45;101596.28;5062658;28;20492;-73
2023/10/02 10:38:26;;;;;;;7.25;2.15;;;;;;;22.08;76.57;101590.53;5069187;28;20054;-74
2023/10/02 10:40:55;;;;;;;2.75;1.48;;;;;;;22.07;76.20;101584.41;5072538;28;20028;-73
2023/10/02 10:43:26;;;;;;;3.60;1.50;;;;;;;22.04;76.26;101581.31;5072189;28;20032;-74
2023/10/02 10:45:55;;;;;;;4.68;1.60;;;;;;;21.95;77.05;101583.25;5057322;28;20116;-73
2023/10/02 10:48:22;;;;;;;3.42;1.42;;;;;;;21.85;76.28;101577.44;5073290;28;20036;-74
2023/10/02 10:50:59;;;;;;;5.10;1.80;;;;;;;21.84;75.34;101581.09;5063275;28;20063;-73
2023/10/02 10:53:28;;;;;;;3.90;1.73;;;;;;;21.90;75.21;101574.22;5054495;28;20032;-74
2023/10/02 10:55:59;;;;;;;4.43;1.67;;;;;;;22.05;73.60;101582.94;5057392;28;20029;-74
2023/10/02 10:58:35;;;;;;;3.92;1.55;;;;;;;22.11;74.72;101571.56;5062211;28;20103;-74
2023/10/02 11:01:05;;;;;;;4.22;1.40;;;;;;;22.00;74.90;101580.84;5058718;28;20035;-74
2023/10/02 11:03:31;;;;;;;2.30;1.10;;;;;;;21.93;75.44;101569.34;5060557;28;20036;-74
2023/10/02 11:06:03;;;;;;;4.20;1.55;;;;;;;21.93;75.25;101572.00;5068938;28;20537;-73
2023/10/02 11:08:33;;;;;;;2.75;1.52;;;;;;;21.92;76.67;101577.50;5074809;28;20028;-73
2023/10/02 11:11:11;;;;;;;3.42;1.77;;;;;;;21.88;76.53;101569.09;5075913;28;20035;-74
2023/10/02 11:13:53;;;;;;;4.40;1.48;;;;;;;21.89;76.85;101572.56;5064597;28;20031;-72
2023/10/02 11:16:37;;;;;;;2.25;1.42;;;;;;;21.92;74.88;101562.41;5067224;28;20110;-73
2023/10/02 11:19:23;;;;;;;3.72;1.33;;;;;;;22.13;75.35;101564.22;5069106;28;20078;-74
2023/10/02 11:22:19;;;;;;;3.88;1.77;;;;;;;22.17;73.87;101555.69;5067053;28;20037;-73
2023/10/02 11:24:51;;;;;;;2.47;1.40;;;;;;;22.23;76.43;101559.38;5071796;28;20033;-73
2023/10/02 11:27:17;;;;;;;3.22;1.27;;;;;;;22.22;74.93;101562.22;5070119;28;20438;-74
2023/10/02 11:30:00;;;;;;;2.97;1.80;;;;;;;22.21;75.14;101566.72;5066332;28;20033;-73
2023/10/02 11:32:53;;;;;;;2.92;1.83;;;;;;;22.17;73.19;101560.16;5068935;28;20081;-74
2023/10/02 11:35:28;;;;;;;2.90;1.40;;;;;;;22.24;74.13;101560.19;5068501;28;20481;-74
2023/10/02 11:37:55;;;;;;;4.10;1.35;;;;;;;22.29;73.92;101560.44;5067926;28;20067;-73
2023/10/02 11:40:24;;;;;;;2.58;1.92;;;;;;;22.31;73.99;101558.41;5071649;28;20078;-74
2023/10/02 11:42:50;;;;;;;2.47;1.40;;;;;;;22.24;74.30;101560.19;5067023;28;20086;-74
2023/10/02 11:45:16;;;;;;;4.75;1.13;;;;;;;22.26;74.77;101558.16;5071551;28;20024;-74
2023/10/02 11:47:41;;;;;;;3.00;1.08;;;;;;;22.28;74.98;101550.81;5065257;28;20093;-74
2023/10/02 11:50:07;;;;;;;3.00;1.40;;;;;;;22.31;74.43;101551.25;5074123;28;20103;-73
2023/10/02 11:52:32;;;;;;;3.50;1.60;;;;;;;22.29;74.55;101544.50;5065235;28;20036;-75
2023/10/02 11:54:58;;;;;;;1.60;1.00;;;;;;;22.28;74.96;101548.16;5065503;28;20040;-74
2023/10/02 11:57:24;;;;;;;3.13;1.27;;;;;;;22.27;75.18;101538.56;5067897;28;20052;-74
2023/10/02 11:59:50;;;;;;;3.20;1.73;;;;;;;22.23;75.12;101542.63;5062622;28;20028;-73
2023/10/02 12:02:19;;;;;;;3.00;1.60;;;;;;;22.26;74.96;101537.75;5067396;28;20032;-74
2023/10/02 12:04:45;;;;;;;2.85;1.63;;;;;;;22.28;74.80;101537.53;5068516;28;20032;-74
2023/10/02 12:07:16;;;;;;;5.32;1.58;;;;;;;22.35;74.22;101535.75;5060655;28;20135;-74
2023/10/02 12:09:47;;;;;;;3.92;1.92;;;;;;;22.45;73.75;101536.22;5059626;28;20496;-74
2023/10/02 12:12:13;;;;;;;2.92;1.52;;;;;;;22.50;72.29;101531.97;5066515;28;20024;-74
2023/10/02 12:14:42;;;;;;;3.03;1.30;;;;;;;22.58;71.78;101535.47;5060303;28;20082;-74
2023/10/02 12:17:11;;;;;;;3.10;1.50;;;;;;;22.53;73.08;101528.09;5071105;28;20043;-74
2023/10/02 12:19:39;;;;;;;4.18;1.50;;;;;;;22.51;72.31;101530.94;5067116;28;20057;-74
2023/10/02 12:22:06;;;;;;;3.25;1.45;;;;;;;22.47;73.25;101523.56;5062368;28;20041;-74
2023/10/02 12:24:35;;;;;;;3.90;1.45;;;;;;;22.49;72.05;101521.53;5060613;28;20090;-75